Weather observations for the past three days for
Hilton Head Island, Hilton Head Airport
Metric (Imperial)
Date Time (edt) Wind (kph) Vis. (km) Weather Sky Cond. Temperature (ºC) Relative Humidity Wind Chill (°C) Heat Index (°C) Pressure Precipitation (cm)
Air Dwpt 6 hour altimeter (cm) sea level (mb) 1 hr 3 hr 6 hr
Max. Min.
31 06:15 NE 15 16.09 A Few Clouds FEW016 FEW021 26 25 94% 28 76.4 0.0
31 05:55 NE 13 16.09 A Few Clouds FEW005 FEW028 26 25 94% 28 76.4 0.0 0.03
31 05:35 N 15 16.09 Partly Cloudy SCT005 SCT021 SCT035 26 26 100% 28 76.4 0.0
31 05:15 NE 11 16.09 Partly Cloudy SCT020 SCT035 26 26 100% 28 76.4 0.0
31 04:55 N 9 16.09 A Few Clouds FEW018 FEW031 26 25 94% 28 76.38 0.0
31 04:35 Calm 16.09 Partly Cloudy SCT020 SCT026 SCT031 25 25 100% 25 76.38 0.0
31 04:15 Calm 16.09 Mostly Cloudy BKN021 BKN027 25 25 100% 25 76.4 0.0
31 03:55 Calm 16.09 A Few Clouds FEW021 25 25 100% 25 76.4 0.0
31 03:35 Calm 16.09 Fair CLR 25 25 100% 25 76.4 0.0
31 03:15 Calm 16.09 A Few Clouds FEW017 25 24 94% 26 76.4 0.0
31 02:55 Calm 16.09 Partly Cloudy SCT017 25 24 94% 26 76.4 0.0
31 02:35 Calm 16.09 Mostly Cloudy BKN017 BKN022 26 24 89% 28 76.4 0.0
31 02:15 Calm 16.09 Mostly Cloudy BKN017 26 24 89% 28 76.43 0.0
31 01:55 Calm 16.09 Partly Cloudy SCT018 26 24 89% 28 76.43 0.0
31 01:35 Calm 16.09 A Few Clouds FEW018 27 24 84% 30 76.43 0.0
31 01:15 Calm 16.09 A Few Clouds FEW019 27 24 84% 30 76.43 0.0
31 00:55 E 6 16.09 A Few Clouds FEW018 27 24 84% 30 76.43 0.0
31 00:35 Calm 16.09 Partly Cloudy SCT016 27 25 89% 31 76.45 0.0
31 00:15 Vrbl 6 16.09 Partly Cloudy SCT016 27 25 89% 31 76.45 0.0
30 23:55 Vrbl 7 16.09 Fair CLR 27 24 84% 30 76.45 0.0
30 23:35 Calm 16.09 Fair CLR 27 24 84% 30 76.48 0.0
30 23:15 Calm 16.09 Fair CLR 27 24 84% 30 76.48 0.0
30 22:55 Calm 16.09 Fair CLR 26 25 94% 28 76.48 0.0
30 22:35 Calm 16.09 A Few Clouds FEW017 27 24 84% 30 76.5 0.0
30 22:15 Vrbl 7 16.09 A Few Clouds FEW016 27 24 84% 30 76.5 0.0
30 21:55 Vrbl 7 16.09 A Few Clouds FEW017 27 24 84% 30 76.5 0.0
30 21:35 E 9 16.09 Partly Cloudy SCT017 SCT022 27 24 84% 30 76.5 0.0
30 21:15 Calm 16.09 Partly Cloudy SCT017 SCT022 27 24 84% 30 76.48 0.0
30 20:50 Calm 16.09 Partly Cloudy SCT018 27 24 84% 30 76.48 0.0
30 19:50 Calm 16.09 Fair CLR 27 24 84% 30 76.43 0.0
30 18:51 Calm 16.09 Partly Cloudy SCT080 28 24 79% 32 76.43 0.0
30 17:51 E 9 16.09 Partly Cloudy SCT020 29 24 74% 34 76.45 0.0
30 16:50 E 11 16.09 Partly Cloudy SCT018 SCT044 29 24 74% 34 76.45 0.0
30 15:50 NE 7 16.09 Mostly Cloudy BKN015 28 25 84% 33 76.5 0.0
30 14:51 NE 13 16.09 Mostly Cloudy SCT019 BKN026 29 25 79% 35 76.53 0.0
30 13:51 NE 11 16.09 Partly Cloudy SCT019 SCT026 28 25 84% 33 76.56 0.0
30 12:50 NE 13 16.09 Fair CLR 27 24 84% 30 76.56 0.0
30 11:50 NE 6 9.66 Light Rain Fog/Mist FEW005 FEW042 FEW048 24 24 100% 23 76.68 0.0
30 11:42 SE 19 0.80 Heavy Rain Fog SCT006 BKN014 OVC032 25 25 100% 25 76.68 0.0
30 09:51 Calm 12.87 Thunderstorm in Vicinity Rain FEW055 SCT060 OVC070 26 26 100% 28 76.63 0.0
30 08:54 E 11 14.48 Thunderstorm in Vicinity Rain FEW032 FEW043 BKN070 26 26 100% 28 76.58 0.0
30 07:51 NE 19 16.09 Fair CLR 26 25 94% 28 76.53 0.0
30 07:25 E 11 14.48 Thunderstorm in Vicinity Rain FEW032 FEW043 BKN070 26 26 100% 28 76.58 0.0
30 06:55 NE 13 16.09 Fair CLR 26 25 94% 28 76.5 0.0
30 06:35 NE 11 16.09 Partly Cloudy SCT110 26 25 94% 28 76.48 0.0
30 06:15 Vrbl 9 16.09 Mostly Cloudy FEW030 BKN110 26 25 94% 28 76.5 0.0
30 05:55 NE 9 16.09 Partly Cloudy FEW005 SCT016 SCT110 26 25 94% 28 76.48 0.0
30 05:35 NE 9 G 20 16.09 Mostly Cloudy SCT005 SCT021 BKN032 26 25 94% 28 76.45 0.0
30 05:15 NE 19 16.09 Mostly Cloudy SCT018 SCT023 BKN033 27 25 89% 31 76.43 0.0
30 04:55 NE 9 16.09 Mostly Cloudy BKN017 BKN021 BKN026 27 25 89% 31 76.43 0.0
30 04:35 NE 7 16.09 Mostly Cloudy SCT017 SCT023 BKN027 27 25 89% 31 76.45 0.0
30 04:15 Calm 16.09 Mostly Cloudy SCT018 BKN023 27 25 89% 31 76.45 0.0
30 03:55 Calm 16.09 Partly Cloudy SCT020 27 25 89% 31 76.45 0.0
30 03:15 Calm 16.09 Mostly Cloudy SCT020 BKN027 25 25 100% 25 76.45 0.0
30 02:55 Calm 16.09 Partly Cloudy SCT019 26 25 94% 28 76.48 0.0
30 02:35 Calm 16.09 A Few Clouds FEW019 26 25 94% 28 76.48 0.0
30 02:15 Calm 16.09 A Few Clouds FEW018 26 25 94% 28 76.48 0.0
30 01:55 Calm 16.09 A Few Clouds FEW018 26 25 94% 28 76.5 0.0
30 01:35 Calm 16.09 Partly Cloudy SCT017 25 25 100% 25 76.56 0.0
30 01:15 Calm 16.09 Partly Cloudy SCT018 25 24 94% 26 76.56 0.0
30 00:55 Calm 16.09 A Few Clouds FEW019 25 24 94% 26 76.56 0.0
30 00:35 Calm 16.09 A Few Clouds FEW019 25 24 94% 26 76.56 0.0
30 00:15 Calm 16.09 Fair CLR 26 24 89% 28 76.56 0.0
29 23:55 Calm 16.09 Thunderstorm in Vicinity FEW019 27 24 84% 30 76.56 0.0
29 23:35 Calm 16.09 Fair CLR 27 24 84% 30 76.58 0.0
29 23:15 Calm 16.09 Mostly Cloudy SCT019 BKN024 27 24 84% 30 76.58 0.0
29 22:55 Calm 16.09 Partly Cloudy SCT019 27 24 84% 30 76.61 0.0
29 22:35 E 6 16.09 Partly Cloudy SCT020 SCT028 SCT034 27 24 84% 30 76.63 0.0
29 22:15 Vrbl 6 16.09 Partly Cloudy SCT022 SCT029 SCT034 27 24 84% 30 76.63 0.0
29 21:55 Calm 16.09 Partly Cloudy SCT021 27 24 84% 30 76.63 0.0
29 21:35 Calm 16.09 Partly Cloudy SCT022 26 23 84% 28 76.61 0.0
29 21:15 Calm 16.09 Fair CLR 26 23 84% 28 76.56 0.0
29 20:50 Calm 16.09 Fair CLR 26 23 84% 28 76.53 0.0
29 19:50 Calm 16.09 Mostly Cloudy FEW019 SCT023 BKN041 27 24 84% 30 76.48 0.0
29 18:52 Calm 16.09 A Few Clouds FEW018 27 24 84% 30 76.48 0.0
29 17:50 Calm 16.09 Partly Cloudy SCT018 28 24 79% 32 76.48 0.0
29 16:50 Calm 16.09 Partly Cloudy SCT017 28 24 79% 32 76.48 0.0
29 15:51 Calm 16.09 Partly Cloudy SCT022 29 24 74% 34 76.5 0.0
29 14:51 Calm 16.09 Partly Cloudy SCT020 SCT037 29 24 74% 34 76.53 0.0
29 13:50 Calm 16.09 Mostly Cloudy BKN020 29 24 74% 34 76.53 0.0
29 12:53 S 11 G 19 16.09 Mostly Cloudy FEW017 BKN020 BKN032 27 25 89% 31 76.58 0.0
29 11:50 Calm 16.09 Mostly Cloudy SCT015 BKN020 BKN032 27 25 89% 31 76.61 0.0
29 10:51 Calm 16.09 A Few Clouds FEW013 26 25 94% 28 76.61 0.0
29 08:50 Calm 14.48 Thunderstorm in Vicinity Drizzle BKN028 BKN075 BKN100 26 25 94% 28 76.53 0.0
29 07:50 Calm 16.09 Mostly Cloudy BKN029 BKN034 25 24 94% 26 76.53 0.0
29 06:56 NE 9 11.27 Light Rain OVC018 25 25 100% 25 76.48 0.0
29 06:35 NE 11 16.09 Mostly Cloudy SCT017 BKN080 25 25 100% 25 76.45 0.0
29 06:15 NE 11 16.09 Fair CLR 25 25 100% 25 76.48 0.0
29 05:55 NE 11 16.09 Fair CLR 25 25 100% 25 76.45 0.0
29 05:35 Calm 16.09 Fair CLR 25 25 100% 25 76.45 0.0
29 05:15 NE 7 16.09 Fair CLR 25 24 94% 26 76.43 0.0
29 04:55 NE 7 16.09 Fair CLR 24 24 100% 23 76.43 0.0
29 04:35 Calm 16.09 Thunderstorm in Vicinity CLR 24 24 100% 23 76.4 0.0
29 04:15 Calm 16.09 Fair CLR 24 24 100% 23 76.38 0.0
29 03:55 Calm 12.87 Thunderstorm in Vicinity FEW070 24 24 100% 23 76.35 0.0
29 03:35 Calm 14.48 Thunderstorm in Vicinity SCT070 24 24 100% 23 76.38 0.0
29 03:15 Calm 11.27 Thunderstorm in Vicinity FEW040 FEW045 SCT050 24 24 100% 23 76.38 0.0
29 02:55 Calm 12.87 Thunderstorm FEW040 BKN048 25 25 100% 25 76.4 0.0 0.2
29 02:35 NE 7 16.09 Overcast FEW041 BKN050 OVC060 25 25 100% 25 76.38 0.0
29 02:15 Calm 16.09 Light Rain FEW017 SCT026 BKN041 25 25 100% 25 76.38 0.0
29 01:55 Calm 2.01 Heavy Rain Fog/Mist SCT016 BKN024 OVC029 25 25 100% 25 76.38 0.0 0.99
29 01:35 NE 17 2.41 Heavy Rain Fog/Mist OVC015 25 25 100% 25 76.4 0.0
29 01:15 N 7 16.09 Overcast OVC018 25 25 100% 25 76.4 0.0
29 00:55 Calm 16.09 Mostly Cloudy SCT019 BKN055 25 25 100% 25 76.4 0.0
29 00:35 Calm 12.87 Light Rain FEW022 FEW027 FEW034 24 24 100% 23 76.4 0.0
29 00:15 NE 7 14.48 Mostly Cloudy SCT018 BKN025 BKN034 24 24 100% 23 76.4 0.0
28 23:55 Calm 14.48 Overcast OVC019 24 24 100% 23 76.43 0.0
28 23:35 Calm 16.09 Partly Cloudy SCT020 24 24 100% 23 76.4 0.0
28 23:15 Calm 12.87 Fair CLR 24 24 100% 23 76.4 0.0
28 22:55 Calm 14.48 A Few Clouds FEW028 24 24 100% 23 76.38 0.0
28 22:35 Calm 16.09 A Few Clouds FEW028 24 24 100% 23 76.38 0.0
28 22:15 Calm 16.09 Fair CLR 24 24 100% 23 76.38 0.0
28 21:55 Calm 14.48 Fair CLR 24 24 100% 23 76.35 0.0
28 21:35 Calm 16.09 Fair CLR 24 24 100% 23 76.35 0.0
28 21:15 Calm 16.09 Fair CLR 24 24 100% 23 76.33 0.0
28 19:50 Calm 14.48 Fair CLR 24 24 100% 23 76.28 0.0
28 18:50 Calm 16.09 Rain CLR 24 23 94% 23 76.28 0.0
28 17:50 S 7 14.48 Thunderstorm in Vicinity Rain CLR 24 23 94% 23 76.33 0.0
28 16:50 S 7 9.66 Rain Fog/Mist FEW038 FEW048 SCT060 24 24 100% 23 76.35 0.0
28 15:50 Calm 9.66 Light Rain FEW032 SCT039 BKN047 24 23 94% 23 76.35 0.0
28 14:57 Calm 11.27 Light Rain CLR 24 24 100% 23 76.38 0.0
28 12:51 N 13 2.41 Thunderstorm Fog/Mist SCT015 BKN021 26 25 94% 28 76.38 0.0
28 11:50 SW 7 16.09 Mostly Cloudy BKN021 BKN029 BKN037 29 25 79% 35 76.38 0.0
28 10:50 Calm 16.09 Partly Cloudy FEW017 SCT037 SCT045 26 25 94% 28 76.38 0.0
28 09:50 Calm 16.09 Fair CLR 27 25 89% 31 76.35 0.0
28 08:50 Calm 16.09 Fair CLR 26 25 94% 28 76.33 0.0
28 07:50 Calm 16.09 Fair CLR 24 24 100% 23 76.3 0.0
28 06:50 SW 6 16.09 A Few Clouds FEW080 24 24 100% 23 76.28 0.0
Date Time (edt) Wind (kph) Vis. (km) Weather Sky Cond. Air Dwpt Max. Min. Relative Humidity Wind Chill (°C) Heat Index (°C) altimeter (cm) sea level (mb) 1 hr 3 hr 6 hr
6 hour
Temperature (ºC) Pressure Precipitation (cm)